Time;durP1;ratioP1;P1;durP2;ratioP2;P2;SDS_P1;SDS_P2;PMS_P1;PMS_P2;Temp;Humidity;BMP_temperature;BMP_pressure;BME280_temperature;BME280_humidity;BME280_pressure;Samples;Min_cycle;Max_cycle;Signal;HPM_P1;HPM_P2
2023/05/23 00:01:13;;;;;;;14.00;12.80;;;;;;;18.86;100.00;100125.38;5049590;28;20252;-77
2023/05/23 00:03:39;;;;;;;12.83;11.77;;;;;;;18.86;100.00;100120.13;5054643;28;20192;-76
2023/05/23 00:06:05;;;;;;;13.37;12.27;;;;;;;18.89;100.00;100122.63;5057311;28;20199;-76
2023/05/23 00:08:31;;;;;;;12.73;11.73;;;;;;;18.90;100.00;100124.34;5074953;28;20973;-77
2023/05/23 00:10:56;;;;;;;12.13;11.23;;;;;;;18.93;100.00;100116.28;5073143;28;20196;-77
2023/05/23 00:13:22;;;;;;;13.17;12.07;;;;;;;18.95;100.00;100116.28;5072665;28;20631;-77
2023/05/23 00:15:47;;;;;;;13.47;12.33;;;;;;;18.96;100.00;100115.34;5074214;28;20662;-76
2023/05/23 00:18:14;;;;;;;11.93;11.00;;;;;;;18.97;100.00;100112.66;5072665;28;20254;-76
2023/05/23 00:20:41;;;;;;;12.80;11.80;;;;;;;19.01;100.00;100119.47;5056681;28;20227;-77
2023/05/23 00:23:17;;;;;;;12.17;11.13;;;;;;;19.03;100.00;100128.09;5072845;28;20193;-78
2023/05/23 00:25:47;;;;;;;11.80;10.90;;;;;;;19.05;100.00;100133.28;5055550;28;20754;-77
2023/05/23 00:28:12;;;;;;;12.37;11.27;;;;;;;19.04;100.00;100132.44;5073517;28;20208;-77
2023/05/23 00:30:38;;;;;;;12.53;11.53;;;;;;;19.06;100.00;100129.72;5069980;28;20574;-76
2023/05/23 00:33:03;;;;;;;12.50;11.60;;;;;;;19.08;100.00;100129.63;5072875;28;20241;-76
2023/05/23 00:35:28;;;;;;;12.47;11.47;;;;;;;19.09;100.00;100131.34;5073813;28;20184;-79
2023/05/23 00:37:54;;;;;;;11.73;10.83;;;;;;;19.08;100.00;100127.88;5077246;28;20696;-77
2023/05/23 00:40:22;;;;;;;12.90;11.90;;;;;;;19.08;100.00;100124.41;5075519;28;20209;-77
2023/05/23 00:42:49;;;;;;;12.60;11.60;;;;;;;19.08;100.00;100124.41;5058156;28;20197;-76
2023/05/23 00:45:15;;;;;;;12.43;11.43;;;;;;;19.06;100.00;100127.09;5074461;28;20209;-76
2023/05/23 00:47:41;;;;;;;13.17;12.17;;;;;;;19.05;100.00;100128.03;5078508;28;20212;-78
2023/05/23 00:50:10;;;;;;;12.37;11.47;;;;;;;19.05;100.00;100133.28;5051317;28;20187;-77
2023/05/23 00:52:36;;;;;;;13.03;12.03;;;;;;;19.02;100.00;100129.03;5049964;28;20217;-77
2023/05/23 00:55:02;;;;;;;12.80;11.73;;;;;;;19.02;100.00;100133.41;5056176;28;20232;-78
2023/05/23 00:57:27;;;;;;;12.10;11.17;;;;;;;19.00;100.00;100130.88;5055526;28;20215;-76
2023/05/23 00:59:52;;;;;;;12.30;11.33;;;;;;;19.00;100.00;100135.25;5061540;28;20205;-77
2023/05/23 01:02:20;;;;;;;13.17;12.13;;;;;;;19.00;100.00;100141.34;5075544;28;20200;-77
2023/05/23 01:04:46;;;;;;;12.53;11.53;;;;;;;19.00;100.00;100132.63;5072801;28;20564;-77
2023/05/23 01:07:12;;;;;;;12.27;11.27;;;;;;;19.00;100.00;100141.34;5069771;28;20201;-77
2023/05/23 01:09:38;;;;;;;11.67;10.77;;;;;;;19.02;100.00;100143.91;5076091;28;20214;-75
2023/05/23 01:12:28;;;;;;;12.57;11.63;;;;;;;19.03;100.00;100143.84;5074713;28;21042;-76
2023/05/23 01:15:09;;;;;;;11.70;10.80;;;;;;;19.07;100.00;100146.31;5057481;28;20205;-77
2023/05/23 01:17:43;;;;;;;11.93;11.07;;;;;;;19.05;100.00;100141.13;5073592;28;20238;-76
2023/05/23 01:20:15;;;;;;;12.90;12.00;;;;;;;19.06;100.00;100139.38;5071062;28;20209;-78
2023/05/23 01:22:59;;;;;;;12.67;11.43;;;;;;;19.07;100.00;100144.53;5069643;28;20195;-77
2023/05/23 01:25:58;;;;;;;12.37;11.37;;;;;;;19.05;100.00;100135.91;5070593;28;20296;-78
2023/05/23 01:28:28;;;;;;;12.67;11.67;;;;;;;19.04;100.00;100128.94;5075343;28;20692;-77
2023/05/23 01:30:57;;;;;;;11.90;10.90;;;;;;;19.04;100.00;100134.19;5075627;28;20655;-77
2023/05/23 01:33:24;;;;;;;11.93;11.00;;;;;;;19.03;100.00;100137.72;5075463;28;20186;-76
2023/05/23 01:35:49;;;;;;;12.73;11.73;;;;;;;19.02;100.00;100133.41;5072162;28;20234;-76
2023/05/23 01:38:15;;;;;;;12.57;11.57;;;;;;;19.00;100.00;100135.25;5055791;28;20204;-78
2023/05/23 01:40:40;;;;;;;12.53;11.63;;;;;;;18.98;100.00;100137.97;5071389;28;20274;-76
2023/05/23 01:43:06;;;;;;;12.10;11.23;;;;;;;18.95;100.00;100138.09;5073592;28;20568;-78
2023/05/23 01:45:32;;;;;;;12.37;11.47;;;;;;;18.93;100.00;100139.91;5071950;28;20672;-78
2023/05/23 01:47:58;;;;;;;13.07;12.07;;;;;;;18.94;100.00;100146.00;5070948;28;20225;-77
2023/05/23 01:50:24;;;;;;;12.77;11.67;;;;;;;18.92;100.00;100140.81;5074215;28;20192;-77
2023/05/23 01:52:51;;;;;;;12.50;11.50;;;;;;;18.90;100.00;100147.94;5057564;28;20288;-76
2023/05/23 01:55:21;;;;;;;12.83;11.73;;;;;;;18.88;100.00;100150.59;5057023;28;20188;-77
2023/05/23 01:57:56;;;;;;;13.33;12.33;;;;;;;18.86;100.00;100152.44;5056860;28;20226;-79
2023/05/23 02:00:22;;;;;;;12.60;11.60;;;;;;;18.85;100.00;100148.13;5077160;28;20209;-77
2023/05/23 02:02:47;;;;;;;13.13;12.03;;;;;;;18.86;100.00;100152.44;5073874;28;20213;-76
2023/05/23 02:05:13;;;;;;;13.00;12.00;;;;;;;18.85;100.00;100157.75;5075357;28;20219;-77
2023/05/23 02:07:38;;;;;;;12.83;11.83;;;;;;;18.87;100.00;100158.56;5055371;28;20208;-76
2023/05/23 02:10:06;;;;;;;13.17;12.17;;;;;;;18.88;100.00;100160.25;5076483;28;20644;-76
2023/05/23 02:12:32;;;;;;;13.50;12.40;;;;;;;18.88;100.00;100153.22;5075190;28;20180;-75
2023/05/23 02:14:57;;;;;;;12.50;11.60;;;;;;;18.87;100.00;100159.38;5060200;28;20261;-76
2023/05/23 02:17:23;;;;;;;12.67;11.77;;;;;;;18.88;100.00;100163.72;5075745;28;20370;-76
2023/05/23 02:19:48;;;;;;;12.70;11.80;;;;;;;18.88;100.00;100168.13;5060022;28;20188;-75
2023/05/23 02:22:14;;;;;;;14.07;12.87;;;;;;;18.89;100.00;100161.97;5054979;28;20199;-76
2023/05/23 02:24:39;;;;;;;13.37;12.27;;;;;;;18.89;100.00;100154.09;5056092;28;20189;-77
2023/05/23 02:27:05;;;;;;;14.30;13.10;;;;;;;18.89;100.00;100152.31;5075922;28;20192;-76
2023/05/23 02:29:30;;;;;;;13.90;12.80;;;;;;;18.89;100.00;100161.97;5075271;28;20234;-76
2023/05/23 02:31:55;;;;;;;14.77;13.47;;;;;;;18.89;100.00;100161.97;5074721;28;20191;-76
2023/05/23 02:34:21;;;;;;;14.33;13.23;;;;;;;18.89;100.00;100162.78;5078274;28;20195;-77
2023/05/23 02:36:46;;;;;;;14.03;12.93;;;;;;;18.88;100.00;100168.97;5074805;28;20658;-76
2023/05/23 02:39:11;;;;;;;14.00;12.77;;;;;;;18.89;100.00;100173.28;5074528;28;20207;-78
2023/05/23 02:41:37;;;;;;;13.67;12.60;;;;;;;18.88;100.00;100171.56;5072703;28;20241;-75
2023/05/23 02:44:02;;;;;;;13.60;12.50;;;;;;;18.88;100.00;100168.97;5075602;28;20921;-76
2023/05/23 02:46:28;;;;;;;13.90;12.60;;;;;;;18.88;100.00;100174.19;5072566;28;20195;-76
2023/05/23 02:48:53;;;;;;;15.33;14.13;;;;;;;18.89;100.00;100169.81;5074051;28;20215;-77
2023/05/23 02:51:18;;;;;;;15.13;13.87;;;;;;;18.87;100.00;100172.50;5051780;28;20196;-79
2023/05/23 02:53:44;;;;;;;16.30;14.97;;;;;;;18.87;100.00;100182.97;5072873;28;20284;-78
2023/05/23 02:56:09;;;;;;;16.67;15.37;;;;;;;18.89;100.00;100175.06;5056977;28;20583;-79
2023/05/23 02:58:34;;;;;;;15.63;14.37;;;;;;;18.90;100.00;100171.53;5057722;28;20559;-77
2023/05/23 03:01:03;;;;;;;17.23;15.93;;;;;;;18.91;100.00;100178.44;5055241;28;20204;-78
2023/05/23 03:03:30;;;;;;;16.80;15.40;;;;;;;18.90;100.00;100176.78;5071353;28;20222;-78
2023/05/23 03:06:03;;;;;;;16.63;15.33;;;;;;;18.91;100.00;100177.59;5073049;28;20613;-77
2023/05/23 03:08:29;;;;;;;15.90;14.70;;;;;;;18.92;100.00;100181.94;5055778;28;20268;-76
2023/05/23 03:10:54;;;;;;;17.00;15.60;;;;;;;18.93;100.00;100178.38;5073468;28;20199;-77
2023/05/23 03:13:19;;;;;;;16.07;14.73;;;;;;;18.94;100.00;100182.72;5071311;28;20191;-76
2023/05/23 03:15:45;;;;;;;16.30;15.00;;;;;;;18.94;100.00;100183.59;5077602;28;20192;-76
2023/05/23 03:18:11;;;;;;;15.33;14.13;;;;;;;18.96;100.00;100176.50;5076585;28;20205;-76
2023/05/23 03:20:36;;;;;;;15.47;14.27;;;;;;;18.97;100.00;100180.00;5078587;28;20213;-76
2023/05/23 03:23:02;;;;;;;15.00;13.90;;;;;;;18.95;100.00;100174.81;5075432;28;20605;-77
2023/05/23 03:25:28;;;;;;;14.83;13.73;;;;;;;18.95;100.00;100185.28;5074512;28;20223;-77
2023/05/23 03:27:53;;;;;;;14.80;13.63;;;;;;;18.93;100.00;100184.47;5058516;28;20232;-76
2023/05/23 03:30:19;;;;;;;15.57;14.10;;;;;;;18.93;100.00;100194.13;5078567;28;20229;-77
2023/05/23 03:32:45;;;;;;;15.20;14.00;;;;;;;18.92;100.00;100201.13;5075409;28;20199;-76
2023/05/23 03:35:11;;;;;;;15.63;14.37;;;;;;;18.91;100.00;100191.56;5075473;28;21071;-75
2023/05/23 03:37:36;;;;;;;15.33;14.00;;;;;;;18.91;100.00;100194.19;5075987;28;20211;-77
2023/05/23 03:40:02;;;;;;;14.67;13.53;;;;;;;18.90;100.00;100192.50;5074326;28;20865;-79
2023/05/23 03:42:28;;;;;;;14.57;13.37;;;;;;;18.89;100.00;100198.66;5056615;28;20304;-77
2023/05/23 03:44:53;;;;;;;15.17;13.90;;;;;;;18.91;100.00;100202.03;5072712;28;21128;-76
2023/05/23 03:47:18;;;;;;;14.03;12.93;;;;;;;18.92;100.00;100205.53;5072189;28;20222;-78
2023/05/23 03:49:44;;;;;;;13.90;12.80;;;;;;;18.92;100.00;100214.22;5054812;28;20191;-76
2023/05/23 03:52:10;;;;;;;14.17;12.97;;;;;;;18.93;100.00;100204.63;5070278;28;20180;-78
2023/05/23 03:54:36;;;;;;;13.67;12.60;;;;;;;18.92;100.00;100211.63;5072129;28;20475;-75
2023/05/23 03:57:01;;;;;;;15.20;13.90;;;;;;;18.93;100.00;100215.09;5056084;28;20183;-76
2023/05/23 03:59:27;;;;;;;13.97;12.87;;;;;;;18.92;100.00;100222.09;5070332;28;20239;-76
2023/05/23 04:01:52;;;;;;;14.43;13.30;;;;;;;18.93;100.00;100215.94;5070572;28;20216;-75
2023/05/23 04:04:19;;;;;;;13.80;12.73;;;;;;;18.91;100.00;100202.03;5074895;28;20248;-74
2023/05/23 04:06:45;;;;;;;14.07;12.97;;;;;;;18.91;100.00;100214.31;5050247;28;20189;-75
2023/05/23 04:09:10;;;;;;;14.23;13.03;;;;;;;18.91;100.00;100219.56;5076890;28;20208;-75
2023/05/23 04:11:35;;;;;;;13.10;12.03;;;;;;;18.89;100.00;100217.84;5073920;28;20669;-75
2023/05/23 04:14:01;;;;;;;13.57;12.50;;;;;;;18.91;100.00;100230.03;5076531;28;20282;-76
2023/05/23 04:16:27;;;;;;;13.50;12.33;;;;;;;18.90;100.00;100226.59;5072718;28;20291;-77
2023/05/23 04:18:53;;;;;;;14.47;13.37;;;;;;;18.89;100.00;100228.34;5074895;28;20266;-77
2023/05/23 04:21:18;;;;;;;15.67;14.47;;;;;;;18.90;100.00;100226.59;5075074;28;20216;-76
2023/05/23 04:23:43;;;;;;;14.47;13.23;;;;;;;18.90;100.00;100226.59;5056711;28;20191;-76
2023/05/23 04:26:10;;;;;;;15.30;14.00;;;;;;;18.91;100.00;100217.78;5072828;28;20188;-75
2023/05/23 04:28:36;;;;;;;17.57;16.17;;;;;;;18.92;100.00;100218.63;5074191;28;20584;-77
2023/05/23 04:31:02;;;;;;;18.73;17.23;;;;;;;18.93;100.00;100233.47;5069088;28;20941;-77
2023/05/23 04:33:29;;;;;;;24.37;22.27;;;;;;;18.91;100.00;100225.63;5078132;28;20184;-77
2023/05/23 04:35:55;;;;;;;25.83;23.53;;;;;;;18.86;100.00;100228.47;5073749;28;20185;-77
2023/05/23 04:38:21;;;;;;;26.77;24.33;;;;;;;18.83;100.00;100243.50;5081410;28;20210;-76
2023/05/23 04:40:47;;;;;;;26.00;23.63;;;;;;;18.80;100.00;100236.63;5057440;28;20231;-77
2023/05/23 04:43:15;;;;;;;25.03;22.83;;;;;;;18.81;100.00;100235.72;5075357;28;20313;-76
2023/05/23 04:45:40;;;;;;;23.43;21.40;;;;;;;18.83;100.00;100246.13;5054963;28;20790;-76
2023/05/23 04:48:06;;;;;;;24.83;22.83;;;;;;;18.84;100.00;100248.66;5072547;28;20205;-77
2023/05/23 04:50:34;;;;;;;24.17;22.00;;;;;;;18.84;100.00;100253.91;5069467;28;20191;-76
2023/05/23 04:52:59;;;;;;;23.80;21.70;;;;;;;18.86;100.00;100252.06;5056908;28;20189;-77
2023/05/23 04:55:25;;;;;;;24.53;22.40;;;;;;;18.84;100.00;100260.94;5077030;28;20290;-76
2023/05/23 04:57:50;;;;;;;23.83;21.83;;;;;;;18.86;100.00;100259.09;5058928;28;20219;-79
2023/05/23 05:00:16;;;;;;;21.70;19.80;;;;;;;18.87;100.00;100253.78;5074483;28;20207;-75
2023/05/23 05:02:42;;;;;;;21.43;19.63;;;;;;;18.91;100.00;100256.28;5059160;28;20199;-76
2023/05/23 05:05:08;;;;;;;22.73;20.83;;;;;;;18.95;100.00;100260.50;5069691;28;20692;-79
2023/05/23 05:07:35;;;;;;;22.17;20.27;;;;;;;18.98;100.00;100266.44;5053408;28;20755;-76
2023/05/23 05:10:00;;;;;;;22.53;20.53;;;;;;;19.04;100.00;100262.69;5069539;28;20188;-76
2023/05/23 05:12:26;;;;;;;21.23;19.43;;;;;;;19.10;100.00;100262.44;5071961;28;20181;-77
2023/05/23 05:14:51;;;;;;;21.93;20.13;;;;;;;19.18;100.00;100259.47;5071429;28;20257;-76
2023/05/23 05:17:18;;;;;;;22.87;20.93;;;;;;;19.25;100.00;100260.88;5075875;28;20232;-77
2023/05/23 05:19:44;;;;;;;23.93;21.83;;;;;;;19.33;100.00;100257.91;5075259;28;20258;-76
2023/05/23 05:22:09;;;;;;;25.00;22.90;;;;;;;19.38;100.00;100260.31;5075203;28;20192;-77
2023/05/23 05:24:36;;;;;;;26.20;23.90;;;;;;;19.39;100.00;100264.63;5083475;28;20183;-76
2023/05/23 05:27:02;;;;;;;27.07;23.93;;;;;;;19.35;100.00;100269.19;5077446;28;20720;-76
2023/05/23 05:29:27;;;;;;;29.53;26.53;;;;;;;19.30;100.00;100269.41;5084328;28;20199;-78
2023/05/23 05:31:52;;;;;;;32.47;29.30;;;;;;;19.28;100.00;100275.66;5079970;28;20275;-76
2023/05/23 05:34:18;;;;;;;29.07;26.27;;;;;;;19.26;100.00;100264.38;5060683;28;20189;-77
2023/05/23 05:36:46;;;;;;;27.50;25.00;;;;;;;19.29;100.00;100266.81;5084670;28;20420;-75
2023/05/23 05:39:13;;;;;;;27.53;25.10;;;;;;;19.32;100.00;100272.81;5068709;28;20257;-77
2023/05/23 05:41:39;;;;;;;28.67;25.97;;;;;;;19.34;100.00;100265.72;5088566;28;20311;-76
2023/05/23 05:44:05;;;;;;;30.00;27.23;;;;;;;19.32;100.00;100278.06;5083813;28;20191;-77
2023/05/23 05:46:30;;;;;;;28.40;26.00;;;;;;;19.32;100.00;100282.44;5082811;28;20181;-77
2023/05/23 05:48:55;;;;;;;27.47;25.00;;;;;;;19.36;100.00;100289.25;5082361;28;20209;-75
2023/05/23 05:51:21;;;;;;;26.57;24.37;;;;;;;19.33;100.00;100284.13;5060274;28;20203;-77
2023/05/23 05:53:48;;;;;;;27.20;24.60;;;;;;;19.30;100.00;100281.66;5084066;28;20682;-79
2023/05/23 05:56:13;;;;;;;27.07;24.67;;;;;;;19.31;100.00;100283.34;5083706;28;20185;-76
2023/05/23 05:58:39;;;;;;;25.43;23.20;;;;;;;19.32;100.00;100292.94;5089126;28;20780;-77
2023/05/23 06:01:04;;;;;;;25.50;22.70;;;;;;;19.34;100.00;100289.34;5090230;28;20208;-77
2023/05/23 06:03:30;;;;;;;24.40;22.20;;;;;;;19.41;100.00;100289.91;5095269;28;20249;-77
2023/05/23 06:05:56;;;;;;;26.30;23.90;;;;;;;19.44;100.00;100292.38;5084891;28;20196;-75
2023/05/23 06:08:21;;;;;;;25.53;23.30;;;;;;;19.43;100.00;100293.31;5076048;28;20313;-78
2023/05/23 06:10:47;;;;;;;25.30;23.03;;;;;;;19.44;100.00;100294.16;5068594;28;20188;-77
2023/05/23 06:13:12;;;;;;;23.70;21.60;;;;;;;19.45;100.00;100299.31;5067679;28;20191;-78
2023/05/23 06:15:38;;;;;;;20.87;19.07;;;;;;;19.38;97.74;100300.53;5071513;28;20679;-77
2023/05/23 06:18:03;;;;;;;19.20;17.40;;;;;;;19.24;95.94;100305.56;5084489;28;20282;-77
2023/05/23 06:20:28;;;;;;;17.80;16.30;;;;;;;19.10;95.12;100311.41;5088520;28;20201;-79
2023/05/23 06:22:54;;;;;;;18.23;16.50;;;;;;;19.01;94.75;100312.66;5064799;28;20199;-77
2023/05/23 06:25:19;;;;;;;19.23;17.33;;;;;;;18.97;95.82;100311.94;5081008;28;20592;-76
2023/05/23 06:27:45;;;;;;;17.77;15.87;;;;;;;18.94;96.52;100314.69;5078226;28;20221;-76
2023/05/23 06:30:11;;;;;;;16.93;15.63;;;;;;;18.94;96.47;100317.31;5076590;28;20309;-77
2023/05/23 06:32:36;;;;;;;18.60;17.00;;;;;;;18.99;96.03;100319.75;5080841;28;20281;-78
2023/05/23 06:35:02;;;;;;;18.43;16.83;;;;;;;18.95;95.35;100336.56;5077386;28;20196;-76
2023/05/23 06:37:28;;;;;;;17.90;16.50;;;;;;;18.91;95.74;100324.44;5080543;28;20209;-76
2023/05/23 06:39:53;;;;;;;17.70;16.20;;;;;;;18.93;96.40;100336.56;5083537;28;20772;-77
2023/05/23 06:42:18;;;;;;;18.80;17.23;;;;;;;18.98;96.01;100337.25;5063864;28;20196;-76
2023/05/23 06:44:43;;;;;;;18.57;17.07;;;;;;;19.00;96.21;100340.66;5081154;28;20198;-77
2023/05/23 06:47:09;;;;;;;17.63;16.13;;;;;;;19.03;96.88;100350.16;5077046;28;20219;-75
2023/05/23 06:49:34;;;;;;;19.33;17.63;;;;;;;19.03;95.48;100351.03;5072273;28;20205;-76
2023/05/23 06:51:59;;;;;;;19.30;17.43;;;;;;;18.96;95.46;100359.22;5082955;28;20320;-76
2023/05/23 06:54:25;;;;;;;18.97;17.43;;;;;;;18.93;95.87;100361.94;5066111;28;20193;-76
2023/05/23 06:56:50;;;;;;;18.60;17.10;;;;;;;18.93;96.42;100362.78;5075835;28;20307;-76
2023/05/23 06:59:15;;;;;;;20.03;18.33;;;;;;;18.92;95.90;100378.59;5082718;28;20212;-75
2023/05/23 07:01:41;;;;;;;19.67;17.87;;;;;;;18.92;96.46;100371.56;5081586;28;20209;-76
2023/05/23 07:04:06;;;;;;;19.73;17.90;;;;;;;18.93;97.43;100381.13;5083876;28;20231;-77
2023/05/23 07:06:32;;;;;;;19.20;17.50;;;;;;;18.94;97.16;100380.25;5075778;28;20189;-77
2023/05/23 07:08:57;;;;;;;28.23;19.53;;;;;;;18.95;97.26;100381.13;5089875;28;20213;-76
2023/05/23 07:11:23;;;;;;;18.93;16.93;;;;;;;18.98;97.27;100381.84;5068025;28;20193;-75
2023/05/23 07:13:48;;;;;;;16.80;15.30;;;;;;;19.13;95.50;100388.22;5084162;28;20807;-76
2023/05/23 07:16:14;;;;;;;15.57;14.27;;;;;;;19.18;92.48;100388.84;5078396;28;20188;-77
2023/05/23 07:18:39;;;;;;;14.90;13.60;;;;;;;19.26;92.63;100385.88;5086480;28;20204;-75
2023/05/23 07:21:04;;;;;;;15.10;13.80;;;;;;;19.31;91.18;100391.81;5081412;28;20625;-78
2023/05/23 07:23:33;;;;;;;14.73;13.37;;;;;;;19.34;91.24;100389.03;5089196;28;20197;-77
2023/05/23 07:25:59;;;;;;;14.33;13.03;;;;;;;19.48;91.20;100396.28;5084793;28;20268;-78
2023/05/23 07:28:25;;;;;;;15.60;14.23;;;;;;;19.60;89.38;100402.78;5078210;28;21036;-75
2023/05/23 07:30:50;;;;;;;15.33;13.93;;;;;;;19.50;90.10;100397.06;5082598;28;20197;-76
2023/05/23 07:33:15;;;;;;;15.27;13.97;;;;;;;19.50;90.00;100398.88;5080548;28;20196;-79
2023/05/23 07:35:41;;;;;;;14.87;13.47;;;;;;;19.65;90.32;100399.94;5082006;28;20190;-77
2023/05/23 07:38:06;;;;;;;14.27;12.93;;;;;;;19.89;89.35;100391.91;5084052;28;20201;-76
2023/05/23 07:40:31;;;;;;;13.83;12.63;;;;;;;19.98;89.12;100401.97;5071626;28;20247;-76
2023/05/23 07:42:57;;;;;;;14.57;13.27;;;;;;;19.97;87.49;100400.28;5076765;28;20197;-75
2023/05/23 07:45:22;;;;;;;14.07;12.60;;;;;;;19.88;88.09;100401.53;5079994;28;20291;-77
2023/05/23 07:47:48;;;;;;;12.17;11.17;;;;;;;19.92;88.60;100408.38;5064666;28;20266;-75
2023/05/23 07:50:13;;;;;;;12.80;11.60;;;;;;;20.01;85.90;100407.09;5082319;28;20193;-76
2023/05/23 07:52:40;;;;;;;13.07;11.87;;;;;;;20.13;84.08;100403.00;5078299;28;20257;-76
2023/05/23 07:55:06;;;;;;;16.97;12.63;;;;;;;20.17;83.61;100387.97;5083836;28;20236;-77
2023/05/23 07:57:31;;;;;;;13.40;12.20;;;;;;;20.24;83.46;100402.50;5059094;28;20225;-79
2023/05/23 07:59:56;;;;;;;13.97;12.57;;;;;;;20.15;83.84;100401.19;5084271;28;20225;-75
2023/05/23 08:02:21;;;;;;;12.50;11.50;;;;;;;20.07;84.25;100411.22;5087935;28;20241;-77
2023/05/23 08:04:47;;;;;;;12.70;11.37;;;;;;;20.12;84.27;100409.19;5078944;28;20642;-76
2023/05/23 08:07:12;;;;;;;13.73;12.30;;;;;;;19.95;84.00;100418.75;5080447;28;20186;-77
2023/05/23 08:09:39;;;;;;;12.77;11.77;;;;;;;19.94;84.40;100414.41;5080404;28;20181;-77
2023/05/23 08:12:05;;;;;;;14.40;13.10;;;;;;;19.98;84.16;100409.00;5074815;28;20658;-76
2023/05/23 08:14:30;;;;;;;13.23;11.93;;;;;;;19.92;84.80;100400.50;5066149;28;20200;-75
2023/05/23 08:16:56;;;;;;;14.30;13.10;;;;;;;20.11;84.29;100423.28;5081348;28;20193;-76
2023/05/23 08:19:21;;;;;;;13.70;12.50;;;;;;;20.27;82.94;100406.78;5078737;28;20231;-76
2023/05/23 08:21:47;;;;;;;15.00;13.40;;;;;;;20.24;82.73;100431.41;5081570;28;20271;-77
2023/05/23 08:24:12;;;;;;;14.27;12.77;;;;;;;20.08;82.57;100411.13;5084537;28;20177;-75
2023/05/23 08:26:38;;;;;;;15.27;13.83;;;;;;;20.04;84.03;100424.47;5082529;28;20650;-76
2023/05/23 08:29:03;;;;;;;14.33;13.00;;;;;;;20.10;84.74;100422.41;5062594;28;20256;-77
2023/05/23 08:31:30;;;;;;;14.20;12.97;;;;;;;20.18;84.46;100422.06;5081776;28;20185;-75
2023/05/23 08:33:55;;;;;;;13.80;12.50;;;;;;;20.11;83.85;100431.16;5075006;28;20185;-76
2023/05/23 08:36:21;;;;;;;15.33;12.93;;;;;;;20.03;84.01;100447.28;5081578;28;20193;-77
2023/05/23 08:38:46;;;;;;;14.33;12.83;;;;;;;19.88;84.48;100429.59;5079866;28;20612;-77
2023/05/23 08:41:17;;;;;;;13.67;12.40;;;;;;;19.71;84.22;100441.69;5079336;28;20211;-76
2023/05/23 08:43:43;;;;;;;12.93;11.73;;;;;;;19.67;84.97;100434.84;5062492;28;20184;-77
2023/05/23 08:46:08;;;;;;;12.03;11.03;;;;;;;19.78;85.74;100437.84;5082822;28;20189;-76
2023/05/23 08:48:37;;;;;;;12.87;11.73;;;;;;;19.95;84.85;100434.50;5078521;28;20197;-76
2023/05/23 08:51:03;;;;;;;13.83;12.50;;;;;;;19.94;84.62;100451.19;5081415;28;20231;-76
2023/05/23 08:53:30;;;;;;;15.47;13.37;;;;;;;19.72;84.80;100451.25;5080711;28;20588;-78
2023/05/23 08:56:01;;;;;;;19.77;12.60;;;;;;;19.58;86.24;100444.00;5086768;28;20284;-78
2023/05/23 08:58:28;;;;;;;15.20;13.87;;;;;;;19.61;86.38;100456.13;5069783;28;20205;-77
2023/05/23 09:00:54;;;;;;;14.97;13.57;;;;;;;19.61;86.58;100453.50;5075449;28;20198;-75
2023/05/23 09:03:20;;;;;;;15.10;13.67;;;;;;;19.58;86.66;100461.53;5082809;28;20204;-75
2023/05/23 09:05:46;;;;;;;14.10;12.80;;;;;;;19.52;86.17;100454.75;5073730;28;20188;-75
2023/05/23 09:08:12;;;;;;;13.77;12.37;;;;;;;19.59;86.34;100455.31;5088253;28;20204;-77
2023/05/23 09:10:38;;;;;;;11.87;10.87;;;;;;;19.67;84.16;100468.97;5102413;28;20170;-77
2023/05/23 09:13:04;;;;;;;11.53;10.43;;;;;;;19.72;84.37;100458.28;5098417;28;20276;-75
2023/05/23 09:15:30;;;;;;;10.17;9.17;;;;;;;19.91;85.02;100456.56;5076729;28;20284;-75
2023/05/23 09:18:00;;;;;;;10.27;9.40;;;;;;;20.04;82.08;100459.47;5074360;28;20932;-78
2023/05/23 09:20:27;;;;;;;11.47;9.20;;;;;;;20.10;82.56;100455.72;5081338;28;20206;-77
2023/05/23 09:22:54;;;;;;;8.77;7.97;;;;;;;20.29;81.27;100468.00;5079202;28;20511;-75
2023/05/23 09:25:19;;;;;;;12.83;7.80;;;;;;;20.35;81.06;100463.28;5077757;28;20264;-76
2023/05/23 09:27:44;;;;;;;9.37;8.57;;;;;;;20.44;80.51;100456.75;5079072;28;20283;-76
2023/05/23 09:30:11;;;;;;;8.77;7.87;;;;;;;20.60;80.56;100458.66;5062572;28;20188;-76
2023/05/23 09:32:37;;;;;;;8.67;7.87;;;;;;;20.62;80.03;100456.81;5081390;28;20657;-75
2023/05/23 09:35:04;;;;;;;7.83;7.13;;;;;;;20.83;78.90;100444.41;5081463;28;20189;-77
2023/05/23 09:37:34;;;;;;;8.30;7.47;;;;;;;20.71;78.78;100449.31;5081460;28;20208;-76
2023/05/23 09:40:05;;;;;;;7.57;6.87;;;;;;;20.70;80.26;100447.63;5079975;28;20268;-77
2023/05/23 09:42:35;;;;;;;7.07;6.47;;;;;;;20.64;79.07;100461.06;5082403;28;20177;-78
2023/05/23 09:45:01;;;;;;;6.40;5.80;;;;;;;20.68;78.91;100457.34;5082115;28;20189;-76
2023/05/23 09:47:26;;;;;;;6.40;5.77;;;;;;;20.65;78.00;100454.88;5081289;28;20661;-77
2023/05/23 09:49:51;;;;;;;8.80;5.90;;;;;;;20.53;78.43;100465.97;5071946;28;20189;-76
2023/05/23 09:52:19;;;;;;;6.67;6.03;;;;;;;20.39;78.56;100458.78;5082539;28;20173;-77
2023/05/23 09:54:45;;;;;;;9.10;5.97;;;;;;;20.38;79.95;100464.94;5081629;28;20541;-76
2023/05/23 09:57:12;;;;;;;6.70;5.43;;;;;;;20.53;79.54;100464.22;5080842;28;20234;-77
2023/05/23 09:59:40;;;;;;;6.23;5.20;;;;;;;20.54;77.86;100458.03;5057754;28;20191;-76
2023/05/23 10:02:10;;;;;;;6.73;5.70;;;;;;;20.44;77.36;100466.44;5062145;28;20375;-76
2023/05/23 10:04:39;;;;;;;5.87;4.60;;;;;;;20.40;78.76;100471.00;5078747;28;20200;-76
2023/05/23 10:07:15;;;;;;;6.10;4.77;;;;;;;20.55;79.38;100461.50;5058794;28;20238;-76
2023/05/23 10:09:44;;;;;;;6.00;4.63;;;;;;;20.86;78.70;100466.19;5081199;28;20200;-76
2023/05/23 10:12:31;;;;;;;5.33;4.13;;;;;;;20.88;76.44;100467.84;5081055;28;20979;-77
2023/05/23 10:15:01;;;;;;;4.13;3.83;;;;;;;21.07;75.48;100466.00;5086468;28;20197;-77
2023/05/23 10:17:26;;;;;;;4.27;3.87;;;;;;;21.01;76.70;100468.97;5077109;28;20222;-77
2023/05/23 10:20:03;;;;;;;4.40;3.70;;;;;;;21.16;75.68;100465.56;5083095;28;20205;-76
2023/05/23 10:22:30;;;;;;;5.90;4.93;;;;;;;20.76;75.87;100470.16;5082271;28;20188;-76
2023/05/23 10:24:55;;;;;;;4.83;4.40;;;;;;;20.59;76.15;100473.59;5077225;28;20193;-77
2023/05/23 10:27:21;;;;;;;4.87;4.43;;;;;;;20.54;76.51;100471.19;5073130;28;20216;-77
2023/05/23 10:29:47;;;;;;;5.23;4.70;;;;;;;20.68;76.18;100470.50;5083510;28;20216;-78
2023/05/23 10:32:13;;;;;;;5.43;4.83;;;;;;;20.75;77.59;100464.97;5085683;28;20863;-78
2023/05/23 10:34:57;;;;;;;5.37;4.87;;;;;;;20.86;77.77;100467.94;5078183;28;20192;-76
2023/05/23 10:37:39;;;;;;;5.17;4.77;;;;;;;20.97;76.80;100465.63;5093175;28;20681;-75
2023/05/23 10:40:28;;;;;;;6.20;5.13;;;;;;;21.24;76.19;100459.91;5087111;28;20340;-76
2023/05/23 10:43:01;;;;;;;5.60;5.10;;;;;;;21.41;75.47;100458.16;5074164;28;20190;-76
2023/05/23 10:45:27;;;;;;;5.57;5.17;;;;;;;21.20;75.89;100453.09;5072559;28;20189;-76
2023/05/23 10:47:52;;;;;;;6.63;5.20;;;;;;;21.22;76.63;100455.63;5084614;28;20919;-77
2023/05/23 10:50:36;;;;;;;5.40;4.90;;;;;;;21.41;75.77;100458.16;5073656;28;20193;-76
2023/05/23 10:53:03;;;;;;;5.70;5.20;;;;;;;21.04;75.74;100460.91;5089163;28;20196;-75
2023/05/23 10:55:35;;;;;;;5.40;5.00;;;;;;;21.23;75.23;100463.47;5083946;28;20193;-76
2023/05/23 10:58:21;;;;;;;5.63;5.13;;;;;;;21.45;74.44;100463.22;5085269;28;20232;-78
2023/05/23 11:01:00;;;;;;;5.67;4.63;;;;;;;21.64;73.73;100466.69;5068014;28;20213;-76
2023/05/23 11:03:47;;;;;;;4.80;4.50;;;;;;;21.99;73.18;100461.34;5076396;28;20178;-76
2023/05/23 11:06:43;;;;;;;5.03;4.63;;;;;;;21.98;72.32;100457.84;5060658;28;20185;-76